Time;durP1;ratioP1;P1;durP2;ratioP2;P2;SDS_P1;SDS_P2;PMS_P1;PMS_P2;Temp;Humidity;BMP_temperature;BMP_pressure;BME280_temperature;BME280_humidity;BME280_pressure;Samples;Min_cycle;Max_cycle;Signal;HPM_P1;HPM_P2
2022/09/10 00:01:43;;;;;;;6.45;5.20;;;;;;;21.42;100.00;99994.44;5052858;28;20507;-73
2022/09/10 00:04:11;;;;;;;7.18;4.80;;;;;;;20.46;100.00;99902.19;5053156;28;20384;-72
2022/09/10 00:06:38;;;;;;;7.20;4.75;;;;;;;21.05;100.00;99993.69;5040697;28;20037;-73
2022/09/10 00:09:04;;;;;;;7.35;4.35;;;;;;;21.28;100.00;99981.69;5033128;28;20116;-72
2022/09/10 00:11:30;;;;;;;4.80;4.28;;;;;;;20.94;100.00;99985.81;5032240;28;20037;-73
2022/09/10 00:13:57;;;;;;;5.32;4.78;;;;;;;20.64;100.00;99921.59;5033366;28;20133;-74
2022/09/10 00:16:24;;;;;;;6.57;4.50;;;;;;;20.81;100.00;99927.34;5033049;28;20179;-72
2022/09/10 00:18:50;;;;;;;7.25;4.28;;;;;;;20.56;100.00;99912.75;5033119;28;20029;-73
2022/09/10 00:21:19;;;;;;;5.82;4.60;;;;;;;21.01;100.00;99981.03;5033166;28;20028;-71
2022/09/10 00:23:45;;;;;;;7.30;4.65;;;;;;;20.42;100.00;99905.13;5032797;28;20507;-72
2022/09/10 00:26:16;;;;;;;8.00;4.60;;;;;;;20.63;100.00;99938.03;5032876;28;20030;-72
2022/09/10 00:28:42;;;;;;;8.23;4.78;;;;;;;20.47;100.00;99911.63;5031272;28;20069;-72
2022/09/10 00:31:08;;;;;;;8.63;4.70;;;;;;;20.86;100.00;99961.44;5032932;28;20061;-72
2022/09/10 00:33:33;;;;;;;5.63;5.03;;;;;;;19.83;100.00;99862.72;5032639;28;20472;-73
2022/09/10 00:35:59;;;;;;;6.15;5.00;;;;;;;20.67;100.00;99954.97;5032248;28;20465;-73
2022/09/10 00:38:30;;;;;;;9.27;5.15;;;;;;;20.52;100.00;99934.56;5033013;28;20025;-73
2022/09/10 00:41:07;;;;;;;5.38;4.70;;;;;;;20.73;100.00;99944.22;5032751;28;20511;-73
2022/09/10 00:44:01;;;;;;;6.47;4.90;;;;;;;20.49;100.00;99901.16;5031707;28;20033;-72
2022/09/10 00:46:36;;;;;;;7.18;4.70;;;;;;;20.91;100.00;99952.44;5032619;28;20045;-72
2022/09/10 00:49:09;;;;;;;6.03;5.30;;;;;;;20.32;100.00;99925.56;5031036;28;20499;-73
2022/09/10 00:51:35;;;;;;;6.28;5.22;;;;;;;20.50;100.00;99957.09;5032712;28;20048;-73
2022/09/10 00:54:02;;;;;;;7.13;5.10;;;;;;;20.65;100.00;99962.00;5032538;28;20395;-73
2022/09/10 00:56:28;;;;;;;5.82;4.88;;;;;;;21.17;100.00;99979.06;5030493;28;20030;-73
2022/09/10 00:58:54;;;;;;;5.47;4.75;;;;;;;21.05;100.00;99956.66;5032373;28;20032;-72
2022/09/10 01:01:21;;;;;;;5.97;4.82;;;;;;;21.05;100.00;99946.31;5031958;28;20507;-73
2022/09/10 01:03:48;;;;;;;7.70;5.10;;;;;;;20.85;100.00;99960.63;5032335;28;20112;-72
2022/09/10 01:06:14;;;;;;;7.60;6.05;;;;;;;20.27;100.00;99851.94;5032056;28;20110;-73
2022/09/10 01:08:40;;;;;;;6.32;5.30;;;;;;;20.59;100.00;99910.75;5032222;28;20037;-72
2022/09/10 01:11:37;;;;;;;7.75;5.47;;;;;;;20.51;100.00;99882.06;5031751;28;20080;-73
2022/09/10 01:14:31;;;;;;;6.95;5.82;;;;;;;21.01;100.00;99965.53;5031983;28;20025;-73
2022/09/10 01:17:24;;;;;;;6.88;6.15;;;;;;;20.90;100.00;99955.94;5032049;28;20029;-73
2022/09/10 01:20:15;;;;;;;8.43;5.90;;;;;;;20.94;100.00;99959.94;5032159;28;20163;-73
2022/09/10 01:22:52;;;;;;;7.30;5.78;;;;;;;20.91;100.00;99959.34;5031889;28;20377;-73
2022/09/10 01:25:47;;;;;;;6.15;5.43;;;;;;;21.17;100.00;99958.34;5034443;28;20040;-73
2022/09/10 01:28:25;;;;;;;11.10;5.93;;;;;;;20.38;100.00;99908.84;5037264;28;20077;-73
2022/09/10 01:30:58;;;;;;;7.85;5.47;;;;;;;20.86;100.00;99954.50;5031576;28;20042;-73
2022/09/10 01:33:36;;;;;;;7.13;5.80;;;;;;;20.27;100.00;99878.59;5031883;28;20025;-73
2022/09/10 01:36:12;;;;;;;7.82;5.60;;;;;;;20.70;100.00;99941.00;5031642;28;20046;-73
2022/09/10 01:38:40;;;;;;;7.95;5.82;;;;;;;20.56;100.00;99912.75;5031875;28;20041;-73
2022/09/10 01:41:06;;;;;;;7.60;5.95;;;;;;;20.76;100.00;99953.50;5031727;28;20021;-75
2022/09/10 01:43:33;;;;;;;6.93;5.82;;;;;;;20.60;100.00;99956.31;5031618;28;20029;-74
2022/09/10 01:46:20;;;;;;;7.60;5.50;;;;;;;20.48;100.00;99956.38;5031328;28;20079;-73
2022/09/10 01:49:17;;;;;;;5.93;5.25;;;;;;;20.29;100.00;99951.63;5031264;28;20041;-73
2022/09/10 01:52:11;;;;;;;7.55;5.50;;;;;;;20.71;100.00;99940.09;5048669;28;20024;-74
2022/09/10 01:54:46;;;;;;;6.85;5.70;;;;;;;20.45;100.00;99941.06;5048379;28;20430;-73
2022/09/10 01:57:35;;;;;;;7.90;6.40;;;;;;;20.42;100.00;99941.28;5049530;28;20040;-74
2022/09/10 02:00:08;;;;;;;6.13;5.43;;;;;;;19.99;100.00;99904.63;5042243;28;20047;-75
2022/09/10 02:02:56;;;;;;;6.53;5.70;;;;;;;20.72;100.00;99934.78;5049967;28;20020;-73
2022/09/10 02:05:25;;;;;;;7.13;5.85;;;;;;;19.72;100.00;99853.13;5050278;28;20021;-73
2022/09/10 02:07:58;;;;;;;7.85;5.95;;;;;;;20.12;100.00;99884.81;5048857;28;20021;-74
2022/09/10 02:10:24;;;;;;;6.78;5.45;;;;;;;20.35;100.00;99942.63;5048061;28;20025;-72
2022/09/10 02:12:50;;;;;;;8.68;6.00;;;;;;;19.92;100.00;99889.66;5049648;28;20085;-71
2022/09/10 02:15:17;;;;;;;9.90;6.00;;;;;;;20.21;100.00;99922.91;5049350;28;20415;-72
2022/09/10 02:17:45;;;;;;;7.18;6.07;;;;;;;20.46;100.00;99938.38;5049168;28;20029;-72
2022/09/10 02:20:13;;;;;;;6.68;5.97;;;;;;;20.09;100.00;99885.00;5047922;28;20502;-73
2022/09/10 02:22:43;;;;;;;6.78;6.00;;;;;;;20.50;100.00;99946.75;5047165;28;20021;-72
2022/09/10 02:25:09;;;;;;;8.13;5.80;;;;;;;19.94;100.00;99922.19;5047689;28;20040;-72
2022/09/10 02:27:37;;;;;;;7.82;6.13;;;;;;;20.27;100.00;99938.00;5047675;28;20186;-72
2022/09/10 02:30:03;;;;;;;8.57;5.80;;;;;;;19.97;100.00;99870.34;5048668;28;20103;-72
2022/09/10 02:32:29;;;;;;;6.32;5.70;;;;;;;20.29;100.00;99928.38;5050068;28;20181;-72
2022/09/10 02:34:54;;;;;;;9.55;6.18;;;;;;;20.23;100.00;99896.97;5050918;28;20112;-72
2022/09/10 02:37:20;;;;;;;6.50;5.18;;;;;;;20.51;100.00;99936.31;5052666;28;20033;-72
2022/09/10 02:39:45;;;;;;;8.27;6.53;;;;;;;19.91;100.00;99864.78;5053221;28;20356;-73
2022/09/10 02:42:15;;;;;;;7.18;6.38;;;;;;;20.17;100.00;99874.13;5052463;28;20120;-74
2022/09/10 02:44:41;;;;;;;6.93;6.15;;;;;;;20.17;100.00;99899.94;5049997;28;20028;-72
2022/09/10 02:47:06;;;;;;;8.93;5.60;;;;;;;20.29;100.00;99914.63;5053959;28;20025;-73
2022/09/10 02:49:33;;;;;;;6.70;5.55;;;;;;;20.33;100.00;99923.81;5053228;28;20417;-73
2022/09/10 02:52:01;;;;;;;6.70;6.00;;;;;;;19.86;100.00;99804.00;5034132;28;20434;-73
2022/09/10 02:54:27;;;;;;;10.65;6.07;;;;;;;19.98;100.00;99856.53;5049048;28;20220;-71
2022/09/10 02:56:52;;;;;;;6.88;6.13;;;;;;;20.31;100.00;99880.03;5051380;28;20570;-73
2022/09/10 02:59:18;;;;;;;6.15;5.55;;;;;;;19.93;100.00;99845.66;5053799;28;20035;-71
2022/09/10 03:01:44;;;;;;;8.98;5.95;;;;;;;19.87;100.00;99859.00;5051950;28;20037;-72
2022/09/10 03:04:09;;;;;;;7.57;5.90;;;;;;;20.34;100.00;99894.50;5051904;28;20029;-72
2022/09/10 03:06:35;;;;;;;6.70;6.00;;;;;;;19.58;100.00;99850.66;5053528;28;20029;-72
2022/09/10 03:09:01;;;;;;;11.85;6.20;;;;;;;20.15;100.00;99925.06;5053271;28;20392;-73
2022/09/10 03:11:26;;;;;;;8.52;6.10;;;;;;;19.96;100.00;99881.59;5052740;28;20023;-72
2022/09/10 03:13:53;;;;;;;8.20;6.03;;;;;;;19.72;100.00;99880.69;5052101;28;20044;-72
2022/09/10 03:16:19;;;;;;;7.13;6.18;;;;;;;19.89;100.00;99875.19;5051446;28;20403;-73
2022/09/10 03:18:45;;;;;;;9.52;6.15;;;;;;;20.00;100.00;99918.34;5052772;28;20071;-73
2022/09/10 03:21:14;;;;;;;7.32;6.47;;;;;;;19.61;100.00;99863.31;5053572;28;20028;-73
2022/09/10 03:23:43;;;;;;;8.00;6.95;;;;;;;19.89;100.00;99934.56;5046536;28;20025;-73
2022/09/10 03:26:09;;;;;;;6.75;6.05;;;;;;;20.06;100.00;99931.69;5053580;28;20059;-73
2022/09/10 03:28:36;;;;;;;7.18;6.20;;;;;;;20.36;100.00;99931.38;5053678;28;20025;-73
2022/09/10 03:31:05;;;;;;;9.85;6.45;;;;;;;20.39;100.00;99944.06;5049169;28;20076;-70
2022/09/10 03:33:31;;;;;;;10.13;6.15;;;;;;;20.01;100.00;99871.78;5052182;28;20057;-71
2022/09/10 03:35:57;;;;;;;6.93;6.22;;;;;;;19.91;100.00;99869.94;5053107;28;20068;-70
2022/09/10 03:38:23;;;;;;;7.43;6.68;;;;;;;19.81;100.00;99849.09;5050223;28;20025;-70
2022/09/10 03:40:49;;;;;;;8.95;6.57;;;;;;;19.61;100.00;99840.09;5051377;28;20108;-69
2022/09/10 03:43:15;;;;;;;9.00;6.88;;;;;;;19.94;100.00;99918.78;5051307;28;20529;-70
2022/09/10 03:45:40;;;;;;;8.95;6.85;;;;;;;19.73;100.00;99887.47;5050825;28;20076;-70
2022/09/10 03:48:06;;;;;;;9.88;6.85;;;;;;;19.62;100.00;99914.00;5051269;28;20032;-72
2022/09/10 03:50:31;;;;;;;9.15;7.15;;;;;;;19.13;100.00;99790.97;5052542;28;20032;-71
2022/09/10 03:52:57;;;;;;;8.80;7.30;;;;;;;19.74;100.00;99900.28;5052580;28;20048;-72
2022/09/10 03:55:23;;;;;;;10.52;7.18;;;;;;;19.62;100.00;99852.09;5053108;28;20461;-71
2022/09/10 03:57:48;;;;;;;9.80;7.03;;;;;;;19.75;100.00;99903.69;5052881;28;20029;-69
2022/09/10 04:00:14;;;;;;;11.90;6.78;;;;;;;19.26;100.00;99840.75;5052404;28;20029;-70
2022/09/10 04:02:40;;;;;;;7.65;6.68;;;;;;;19.46;100.00;99841.16;5052870;28;20048;-69
2022/09/10 04:05:07;;;;;;;8.10;7.18;;;;;;;19.46;100.00;99850.63;5051529;28;20033;-69
2022/09/10 04:07:33;;;;;;;8.80;7.85;;;;;;;19.51;100.00;99900.97;5052582;28;20039;-68
2022/09/10 04:09:58;;;;;;;8.77;7.70;;;;;;;19.82;100.00;99926.41;5052390;28;20033;-70
2022/09/10 04:12:25;;;;;;;8.55;7.63;;;;;;;19.88;100.00;99930.34;5051075;28;20442;-69
2022/09/10 04:14:50;;;;;;;8.15;7.07;;;;;;;20.01;100.00;99951.81;5052391;28;20499;-70
2022/09/10 04:17:16;;;;;;;13.55;6.90;;;;;;;19.71;100.00;99866.09;5051969;28;20040;-70
2022/09/10 04:19:42;;;;;;;8.63;6.68;;;;;;;19.91;100.00;99872.53;5051285;28;20471;-70
2022/09/10 04:22:08;;;;;;;7.65;6.78;;;;;;;20.05;100.00;99934.34;5052369;28;20167;-72
2022/09/10 04:24:33;;;;;;;7.60;6.78;;;;;;;19.30;100.00;99826.75;5052547;28;20073;-71
2022/09/10 04:27:00;;;;;;;8.40;7.15;;;;;;;19.11;100.00;99823.75;5052477;28;20392;-70
2022/09/10 04:29:26;;;;;;;9.73;7.10;;;;;;;20.06;100.00;99923.94;5050744;28;20406;-70
2022/09/10 04:31:51;;;;;;;8.05;6.72;;;;;;;20.07;100.00;99912.66;5051856;28;20124;-72
2022/09/10 04:34:17;;;;;;;12.05;7.60;;;;;;;19.98;100.00;99902.16;5052156;28;20028;-70
2022/09/10 04:36:42;;;;;;;9.25;7.40;;;;;;;19.77;100.00;99840.72;5053692;28;20041;-70
2022/09/10 04:39:08;;;;;;;9.55;7.53;;;;;;;20.24;100.00;99924.47;5051793;28;20422;-70
2022/09/10 04:41:33;;;;;;;7.85;6.88;;;;;;;19.92;100.00;99871.59;5047300;28;20029;-69
2022/09/10 04:43:59;;;;;;;11.52;7.60;;;;;;;20.27;100.00;99896.66;5032054;28;20543;-70
2022/09/10 04:46:24;;;;;;;10.50;7.55;;;;;;;20.09;100.00;99866.09;5032018;28;20021;-70
2022/09/10 04:48:50;;;;;;;7.82;7.03;;;;;;;20.23;100.00;99907.31;5032054;28;20037;-70
2022/09/10 04:51:16;;;;;;;11.10;7.28;;;;;;;21.41;100.00;99935.91;5047793;28;20040;-70
2022/09/10 04:53:42;;;;;;;9.63;7.40;;;;;;;20.23;100.00;99935.72;5050506;28;20056;-71
2022/09/10 04:56:08;;;;;;;8.75;7.57;;;;;;;19.82;100.00;99827.53;5052171;28;20025;-70
2022/09/10 04:58:34;;;;;;;9.15;7.47;;;;;;;20.65;100.00;99931.00;5051552;28;20037;-69
2022/09/10 05:01:00;;;;;;;10.85;7.32;;;;;;;20.31;100.00;99913.59;5050464;28;20481;-69
2022/09/10 05:03:25;;;;;;;11.43;7.28;;;;;;;20.26;100.00;99864.06;5051825;28;20040;-70
2022/09/10 05:05:51;;;;;;;9.85;6.88;;;;;;;20.65;100.00;99941.34;5050629;28;20032;-69
2022/09/10 05:08:17;;;;;;;12.80;7.03;;;;;;;20.94;100.00;99933.28;5049765;28;20032;-70
2022/09/10 05:10:44;;;;;;;9.75;6.82;;;;;;;20.36;100.00;99880.53;5050940;28;20036;-70
2022/09/10 05:13:10;;;;;;;7.97;6.53;;;;;;;20.66;100.00;99893.88;5051548;28;20028;-70
2022/09/10 05:15:39;;;;;;;9.00;6.38;;;;;;;21.15;100.00;99944.72;5050112;28;20036;-71
2022/09/10 05:18:04;;;;;;;8.30;6.43;;;;;;;21.35;100.00;99949.28;5050911;28;20031;-70
2022/09/10 05:20:30;;;;;;;8.75;7.30;;;;;;;20.61;100.00;99875.31;5049854;28;20140;-71
2022/09/10 05:22:56;;;;;;;7.10;6.28;;;;;;;21.07;100.00;99869.44;5051561;28;20388;-71
2022/09/10 05:25:23;;;;;;;9.68;6.80;;;;;;;21.53;100.00;99960.88;5050361;28;20029;-71
2022/09/10 05:27:50;;;;;;;7.93;5.90;;;;;;;21.60;100.00;99962.06;5051409;28;20029;-71
2022/09/10 05:30:16;;;;;;;8.52;6.43;;;;;;;21.57;100.00;99960.50;5050163;28;20115;-71
2022/09/10 05:32:41;;;;;;;8.23;6.28;;;;;;;22.00;100.00;99915.94;5050145;28;20036;-73
2022/09/10 05:35:07;;;;;;;8.07;6.60;;;;;;;21.56;100.00;99895.94;5051526;28;20029;-71
2022/09/10 05:37:33;;;;;;;7.45;6.05;;;;;;;22.00;100.00;99903.81;5049944;28;20062;-71
2022/09/10 05:39:59;;;;;;;8.88;6.10;;;;;;;22.04;100.00;99944.06;5050701;28;20036;-72
2022/09/10 05:42:25;;;;;;;7.60;6.38;;;;;;;22.20;100.00;99887.56;5050758;28;20036;-72
2022/09/10 05:44:50;;;;;;;8.35;5.57;;;;;;;22.78;100.00;99960.81;5051317;28;20098;-71
2022/09/10 05:47:16;;;;;;;6.18;4.95;;;;;;;22.21;100.00;99907.34;5051191;28;20472;-71
2022/09/10 05:49:41;;;;;;;7.53;5.03;;;;;;;22.73;100.00;99937.84;5050873;28;20112;-71
2022/09/10 05:52:07;;;;;;;10.48;5.00;;;;;;;22.90;100.00;99944.25;5049839;28;20028;-71
2022/09/10 05:54:33;;;;;;;5.43;4.75;;;;;;;22.84;100.00;99890.31;5050803;28;20032;-71
2022/09/10 05:56:59;;;;;;;5.13;4.63;;;;;;;23.56;100.00;99956.22;5051087;28;20032;-70
2022/09/10 05:59:24;;;;;;;7.55;4.57;;;;;;;23.54;100.00;99939.94;5051096;28;20388;-71
2022/09/10 06:01:50;;;;;;;6.32;3.90;;;;;;;22.90;100.00;99932.13;5051042;28;20056;-70
2022/09/10 06:04:18;;;;;;;6.00;4.22;;;;;;;23.56;100.00;99964.84;5050856;28;20040;-71
2022/09/10 06:06:44;;;;;;;7.85;4.68;;;;;;;22.49;100.00;99908.63;5050940;28;20083;-75
2022/09/10 06:09:10;;;;;;;6.05;4.05;;;;;;;23.62;100.00;99982.50;5050239;28;20491;-71
2022/09/10 06:11:35;;;;;;;4.78;4.20;;;;;;;23.41;100.00;99973.03;5049154;28;20033;-70
2022/09/10 06:14:01;;;;;;;7.05;3.92;;;;;;;23.39;100.00;99925.63;5050838;28;20032;-71
2022/09/10 06:16:26;;;;;;;5.63;3.95;;;;;;;23.51;100.00;99916.84;5050398;28;20178;-70
2022/09/10 06:18:53;;;;;;;3.92;3.33;;;;;;;23.83;100.00;99983.34;5050766;28;20064;-70
2022/09/10 06:21:19;;;;;;;5.28;3.80;;;;;;;24.08;100.00;99972.59;5050590;28;20040;-70
2022/09/10 06:23:46;;;;;;;6.93;4.28;;;;;;;24.30;100.00;99975.97;5050987;28;20104;-70
2022/09/10 06:26:15;;;;;;;5.28;3.92;;;;;;;24.30;100.00;99901.44;5049072;28;20527;-70
2022/09/10 06:28:42;;;;;;;4.65;3.20;;;;;;;24.13;100.00;99933.22;5050905;28;20124;-70
2022/09/10 06:31:10;;;;;;;5.60;3.45;;;;;;;23.97;100.00;99935.41;5049311;28;20078;-70
2022/09/10 06:33:36;;;;;;;7.13;3.17;;;;;;;24.49;100.00;99981.25;5050570;28;20032;-70
2022/09/10 06:36:02;;;;;;;8.60;4.05;;;;;;;25.21;100.00;99987.09;5050317;28;20106;-71
2022/09/10 06:38:29;;;;;;;3.58;2.85;;;;;;;24.20;100.00;99912.75;5050356;28;20029;-70
2022/09/10 06:41:01;;;;;;;4.60;3.15;;;;;;;24.76;100.00;99890.50;5048824;28;20035;-72
2022/09/10 06:43:30;;;;;;;5.57;3.42;;;;;;;24.79;100.00;99971.69;5050410;28;20025;-71
2022/09/10 06:45:55;;;;;;;5.68;3.25;;;;;;;25.01;100.00;99858.72;5050372;28;20102;-71
2022/09/10 06:48:26;;;;;;;5.38;3.30;;;;;;;25.50;100.00;99934.09;5049479;28;20495;-73
2022/09/10 06:50:57;;;;;;;5.00;3.40;;;;;;;25.01;100.00;99947.22;5050066;28;20483;-72
2022/09/10 06:53:24;;;;;;;4.57;3.30;;;;;;;25.75;100.00;99967.38;5050300;28;20049;-72
2022/09/10 06:55:51;;;;;;;6.95;3.75;;;;;;;26.01;100.00;99987.63;5049078;28;20499;-71
2022/09/10 06:58:18;;;;;;;6.32;3.22;;;;;;;24.94;100.00;99925.28;5048920;28;20043;-70
2022/09/10 07:00:48;;;;;;;7.72;3.40;;;;;;;25.87;100.00;99934.16;5049080;28;20067;-70
2022/09/10 07:03:15;;;;;;;5.30;3.60;;;;;;;26.75;100.00;99980.66;5050663;28;20028;-70
2022/09/10 07:05:42;;;;;;;7.15;3.72;;;;;;;25.85;100.00;99927.47;5049952;28;20384;-71
2022/09/10 07:08:08;;;;;;;5.32;3.85;;;;;;;26.20;100.00;99969.34;5048947;28;20079;-70
2022/09/10 07:10:34;;;;;;;6.13;3.65;;;;;;;25.85;100.00;99928.25;5050165;28;20032;-70
2022/09/10 07:13:00;;;;;;;3.88;3.38;;;;;;;27.27;100.00;99982.53;5050328;28;20029;-71
2022/09/10 07:15:26;;;;;;;5.53;3.58;;;;;;;26.79;100.00;99932.44;5048691;28;20029;-70
2022/09/10 07:17:52;;;;;;;5.25;3.83;;;;;;;25.55;100.00;99952.72;5049865;28;20048;-71
2022/09/10 07:20:18;;;;;;;5.25;3.70;;;;;;;26.26;100.00;100000.06;5048517;28;20029;-70
2022/09/10 07:22:44;;;;;;;4.35;3.50;;;;;;;25.21;100.00;100000.09;5053586;28;20442;-70
2022/09/10 07:25:10;;;;;;;7.88;3.78;;;;;;;25.32;100.00;99979.97;5052465;28;20406;-70
2022/09/10 07:27:35;;;;;;;7.22;3.67;;;;;;;25.79;100.00;99976.53;5053971;28;20037;-71
2022/09/10 07:30:00;;;;;;;5.13;3.67;;;;;;;26.00;100.00;99991.19;5053861;28;20813;-71
2022/09/10 07:32:26;;;;;;;9.48;4.20;;;;;;;25.68;100.00;99976.72;5052247;28;20028;-71
2022/09/10 07:34:52;;;;;;;6.38;4.40;;;;;;;25.59;100.00;99958.50;5053470;28;20036;-72
2022/09/10 07:37:17;;;;;;;10.70;4.85;;;;;;;26.08;100.00;99994.78;5053865;28;20036;-72
2022/09/10 07:39:43;;;;;;;4.63;3.72;;;;;;;25.66;100.00;99942.16;5052410;28;20032;-71
2022/09/10 07:42:10;;;;;;;11.80;7.88;;;;;;;26.30;100.00;99928.44;5053704;28;20380;-71
2022/09/10 07:44:35;;;;;;;5.20;3.83;;;;;;;26.04;100.00;99966.50;5052534;28;20029;-72
2022/09/10 07:47:02;;;;;;;6.88;3.70;;;;;;;25.64;100.00;99966.69;5057761;28;20466;-70
2022/09/10 07:49:28;;;;;;;6.22;4.00;;;;;;;25.51;100.00;99919.28;5054928;28;20120;-70
2022/09/10 07:51:53;;;;;;;9.70;5.55;;;;;;;25.74;100.00;99975.31;5053151;28;20124;-70
2022/09/10 07:54:19;;;;;;;10.48;6.07;;;;;;;26.66;100.00;99973.69;5051757;28;20052;-70
2022/09/10 07:56:45;;;;;;;7.32;3.72;;;;;;;26.09;100.00;99957.31;5051756;28;20036;-70
2022/09/10 07:59:12;;;;;;;6.90;3.67;;;;;;;26.80;100.00;99958.38;5052872;28;20059;-72
2022/09/10 08:01:37;;;;;;;6.07;3.83;;;;;;;26.58;100.00;99961.38;5053094;28;20116;-71
2022/09/10 08:04:03;;;;;;;8.25;4.20;;;;;;;26.85;100.00;99966.63;5052697;28;20115;-71
2022/09/10 08:06:28;;;;;;;9.50;5.10;;;;;;;27.23;100.00;99966.34;5052692;28;20060;-71
2022/09/10 08:08:54;;;;;;;7.15;4.10;;;;;;;25.63;100.00;99895.53;5051461;28;20082;-71
2022/09/10 08:11:20;;;;;;;6.38;4.25;;;;;;;26.11;100.00;99924.09;5052938;28;20112;-71
2022/09/10 08:13:48;;;;;;;8.20;4.13;;;;;;;26.44;100.00;99951.44;5053145;28;20037;-71
2022/09/10 08:16:17;;;;;;;6.10;4.47;;;;;;;26.29;100.00;99898.09;5052558;28;20150;-70
2022/09/10 08:18:43;;;;;;;6.80;4.30;;;;;;;27.00;100.00;99949.47;5052581;28;20028;-70
2022/09/10 08:21:09;;;;;;;8.05;4.93;;;;;;;27.59;100.00;99938.44;5051344;28;20025;-70
2022/09/10 08:23:36;;;;;;;5.95;4.40;;;;;;;27.39;100.00;99958.66;5052210;28;20021;-70
2022/09/10 08:26:03;;;;;;;8.48;4.70;;;;;;;28.33;100.00;99912.56;5052405;28;20099;-70
2022/09/10 08:28:28;;;;;;;6.15;4.00;;;;;;;28.43;100.00;99905.41;5051386;28;20074;-70
2022/09/10 08:31:03;;;;;;;6.03;4.30;;;;;;;28.25;100.00;99904.69;5050987;28;20029;-75
2022/09/10 08:33:30;;;;;;;6.18;4.43;;;;;;;29.15;100.00;99959.81;5050092;28;20064;-70
2022/09/10 08:35:57;;;;;;;8.55;4.00;;;;;;;28.68;100.00;99937.75;5051109;28;20582;-70
2022/09/10 08:38:30;;;;;;;6.38;4.38;;;;;;;27.64;100.00;99920.50;5052323;28;20039;-70
2022/09/10 08:40:56;;;;;;;6.57;4.13;;;;;;;27.27;100.00;99957.25;5051102;28;20029;-71
2022/09/10 08:43:47;;;;;;;5.47;4.30;;;;;;;28.20;100.00;99960.09;5052738;28;20033;-69
2022/09/10 08:46:25;;;;;;;4.75;4.22;;;;;;;27.32;100.00;99897.53;5052431;28;20041;-70
2022/09/10 08:49:03;;;;;;;6.07;4.30;;;;;;;27.72;100.00;99904.88;5051056;28;20032;-71
2022/09/10 08:51:38;;;;;;;7.30;4.80;;;;;;;27.80;100.00;99891.03;5052330;28;20051;-70
2022/09/10 08:54:15;;;;;;;5.75;4.40;;;;;;;28.63;100.00;99964.41;5052286;28;20098;-71
2022/09/10 08:56:41;;;;;;;6.97;4.45;;;;;;;28.78;100.00;99949.72;5051933;28;20159;-71
2022/09/10 08:59:23;;;;;;;7.97;4.20;;;;;;;28.28;100.00;99933.16;5051942;28;20508;-71
2022/09/10 09:02:00;;;;;;;7.63;4.38;;;;;;;28.04;100.00;99847.56;5052013;28;20047;-71
2022/09/10 09:04:41;;;;;;;6.13;4.30;;;;;;;29.57;100.00;99936.09;5051933;28;20039;-71
2022/09/10 09:07:18;;;;;;;7.40;4.03;;;;;;;29.79;100.00;99938.06;5051830;28;20094;-71
2022/09/10 09:09:47;;;;;;;5.93;4.43;;;;;;;29.70;100.00;99937.22;5051960;28;20041;-71
2022/09/10 09:12:34;;;;;;;9.98;4.60;;;;;;;29.51;100.00;99918.41;5051820;28;20036;-71
2022/09/10 09:15:16;;;;;;;9.23;4.65;;;;;;;28.34;100.00;99811.38;5050551;28;20033;-70
2022/09/10 09:18:15;;;;;;;5.10;4.60;;;;;;;29.98;100.00;99926.38;5051966;28;20064;-70
2022/09/10 09:20:45;;;;;;;8.82;4.65;;;;;;;30.19;100.00;99919.56;5084095;28;20036;-72
2022/09/10 09:23:31;;;;;;;5.88;4.72;;;;;;;30.69;100.00;99851.75;5051558;28;20483;-70
2022/09/10 09:26:11;;;;;;;8.20;4.32;;;;;;;30.49;100.00;99902.25;5051691;28;20475;-72
2022/09/10 09:28:56;;;;;;;5.18;4.53;;;;;;;29.92;100.00;99912.13;5051119;28;20033;-71
2022/09/10 09:31:27;;;;;;;4.90;4.40;;;;;;;29.94;100.00;99904.91;5050008;28;20124;-71
2022/09/10 09:33:59;;;;;;;9.70;4.55;;;;;;;29.59;100.00;99906.09;5049991;28;20075;-71
2022/09/10 09:36:33;;;;;;;6.88;4.70;;;;;;;29.54;100.00;99891.84;5051380;28;20032;-70
2022/09/10 09:39:02;;;;;;;7.20;5.18;;;;;;;29.28;100.00;99834.38;5051349;28;20121;-75
2022/09/10 09:41:41;;;;;;;6.68;5.32;;;;;;;29.56;100.00;99819.09;5049766;28;20037;-70
2022/09/10 09:44:30;;;;;;;6.85;4.95;;;;;;;29.22;100.00;99878.78;5050961;28;20021;-71
2022/09/10 09:46:55;;;;;;;6.38;4.95;;;;;;;28.76;100.00;99794.59;5051376;28;20029;-71
2022/09/10 09:49:22;;;;;;;6.72;4.65;;;;;;;29.45;100.00;99843.06;5050134;28;20086;-71
2022/09/10 09:51:50;;;;;;;8.65;4.88;;;;;;;28.76;100.00;99806.88;5051182;28;20052;-71
2022/09/10 09:54:27;;;;;;;9.48;4.80;;;;;;;29.12;100.00;99858.75;5051452;28;20053;-72
2022/09/10 09:56:57;;;;;;;9.63;4.88;;;;;;;28.85;100.00;99811.97;5049778;28;20048;-70
2022/09/10 09:59:26;;;;;;;10.55;6.15;;;;;;;29.16;100.00;99871.56;5050890;28;20033;-71
2022/09/10 10:01:54;;;;;;;7.03;5.03;;;;;;;28.57;100.00;99860.34;5049287;28;20040;-70
2022/09/10 10:04:30;;;;;;;6.25;5.38;;;;;;;29.24;100.00;99875.00;5050977;28;20033;-71
2022/09/10 10:07:00;;;;;;;7.30;5.15;;;;;;;28.82;100.00;99801.00;5050902;28;20044;-71
2022/09/10 10:09:37;;;;;;;7.80;5.32;;;;;;;29.87;100.00;99844.44;5050951;28;20040;-70
2022/09/10 10:12:05;;;;;;;6.38;5.15;;;;;;;28.48;100.00;99819.41;5051164;28;20033;-71
2022/09/10 10:14:30;;;;;;;7.00;5.30;;;;;;;29.79;100.00;99860.19;5050813;28;20037;-71
2022/09/10 10:16:59;;;;;;;6.47;5.72;;;;;;;29.63;100.00;99805.13;5050854;28;20029;-70
2022/09/10 10:19:36;;;;;;;6.57;5.70;;;;;;;29.83;100.00;99742.69;5050671;28;20032;-71
2022/09/10 10:22:17;;;;;;;7.68;5.20;;;;;;;29.93;100.00;99856.88;5049221;28;20473;-72
2022/09/10 10:24:46;;;;;;;8.20;5.50;;;;;;;29.74;100.00;99788.28;5050661;28;20033;-71
2022/09/10 10:27:17;;;;;;;6.07;5.43;;;;;;;29.80;100.00;99850.53;5049346;28;20083;-71
2022/09/10 10:29:55;;;;;;;8.45;6.38;;;;;;;30.13;100.00;99830.25;5048997;28;20033;-71
2022/09/10 10:32:30;;;;;;;9.07;6.55;;;;;;;30.14;100.00;99821.38;5050776;28;20506;-70
2022/09/10 10:35:18;;;;;;;7.00;6.30;;;;;;;29.66;100.00;99790.88;5050757;28;20025;-71
2022/09/10 10:38:21;;;;;;;8.30;6.38;;;;;;;29.45;100.00;99828.16;5050401;28;20029;-71
2022/09/10 10:41:08;;;;;;;6.80;6.20;;;;;;;30.39;95.63;99830.75;5050292;28;20115;-71
2022/09/10 10:43:51;;;;;;;8.45;6.90;;;;;;;30.18;100.00;99820.03;5049054;28;20021;-72
2022/09/10 10:46:41;;;;;;;7.72;6.93;;;;;;;30.24;100.00;99811.47;5048958;28;20119;-71
2022/09/10 10:49:19;;;;;;;7.77;6.97;;;;;;;29.96;100.00;99808.50;5045781;28;20123;-71
2022/09/10 10:51:51;;;;;;;8.43;6.90;;;;;;;30.17;100.00;99811.34;5050854;28;20048;-70
2022/09/10 10:54:17;;;;;;;9.75;7.03;;;;;;;29.97;100.00;99815.38;5050077;28;20045;-69
2022/09/10 10:57:30;;;;;;;7.85;6.85;;;;;;;29.73;100.00;99810.25;5052378;28;20028;-70
2022/09/10 11:00:06;;;;;;;12.07;6.72;;;;;;;30.26;100.00;99749.97;5038309;28;20045;-71
2022/09/10 11:02:51;;;;;;;7.50;6.80;;;;;;;31.23;96.52;99781.53;5054284;28;20029;-70
2022/09/10 11:05:30;;;;;;;11.48;7.03;;;;;;;30.91;96.24;99758.19;5052622;28;20025;-71
2022/09/10 11:08:02;;;;;;;8.23;6.68;;;;;;;31.18;93.27;99781.25;5052900;28;20061;-69
2022/09/10 11:10:59;;;;;;;10.40;7.35;;;;;;;32.11;90.51;99779.69;5052701;28;20071;-70
2022/09/10 11:13:48;;;;;;;7.20;6.55;;;;;;;31.93;89.02;99779.28;5053267;28;20052;-70
2022/09/10 11:16:22;;;;;;;7.28;6.40;;;;;;;31.92;81.70;99745.28;5053985;28;20039;-70
2022/09/10 11:18:52;;;;;;;8.90;6.70;;;;;;;32.57;84.26;99758.31;5052388;28;20036;-71
2022/09/10 11:21:30;;;;;;;9.10;6.88;;;;;;;31.47;87.84;99696.34;5053845;28;20025;-71
2022/09/10 11:24:19;;;;;;;13.57;7.63;;;;;;;31.40;84.95;99722.56;5052501;28;20029;-71
2022/09/10 11:27:22;;;;;;;8.10;7.22;;;;;;;32.56;81.01;99761.97;5053265;28;20574;-72
2022/09/10 11:29:59;;;;;;;8.60;7.38;;;;;;;31.63;88.53;99754.81;5054076;28;20747;-71
2022/09/10 11:32:44;;;;;;;8.45;7.53;;;;;;;31.89;90.27;99741.16;5053711;28;20029;-72
2022/09/10 11:35:25;;;;;;;8.20;7.40;;;;;;;31.21;92.45;99677.59;5052540;28;20054;-71
2022/09/10 11:38:00;;;;;;;9.90;8.32;;;;;;;31.19;94.66;99677.78;5053620;28;20033;-72
2022/09/10 11:40:56;;;;;;;10.52;7.70;;;;;;;31.63;92.28;99737.41;5053823;28;20037;-72